Pagina principale
METAR-TAF:

METAR-TAF

Aeroporti :

Aeroporto di Kasane

Kasane, Botswana

latitudine: 17-49S, longitudine: 025-09E, altezza: 968 m

Osservazione

Il bollettino è stato emesso 1 ora e 40 minuti fa, alle 05:00 UTC
Vento 7 kt da est
Temperature 12°C
Umidità 67%
Pressione 1024 hPa
Visibilità 10 km o più
nessuna nube inferiore a 1500 m e nessun cumulonembo

METAR: FBKE 270500Z 10007KT CAVOK 12/06 Q1024

Ora: 08:40 (06:40 UTC)

Previsione

Il bollettino è stato emesso 3 ore e 40 minuti fa, alle 03:00 UTC
Previsione valida dal 27 alle 06 UTC al 27 alle 15 UTC
Vento 15 kt da nord/nord-est
Visibilità 10 km o più
nessuna nube inferiore a 1500 m e nessun cumulonembo

TAF: FBKE 270300Z 2706/2715 03015KT CAVOK

Osservazioni e previsioni meteorologiche di più di 4000 aeroporti (messaggi METAR e TAF).

Le stazioni disponibili sono rappresentate dai dischi gialli e rossi sulla carta.

Puntare il mouse per vedere il nome della stazione.

Clicca sopra per visualizzare le osservazioni e previsioni meteorologiche.

Per cambiare la mappa : fare clic sui pulsanti verdi con una croce nera per ingrandire, il pulsante verde con un trattino per diminuire, o sulla freccia verde per le mappe adiacenti.


METAR-TAF: